Time;durP1;ratioP1;P1;durP2;ratioP2;P2;SDS_P1;SDS_P2;PMS_P1;PMS_P2;Temp;Humidity;BMP_temperature;BMP_pressure;BME280_temperature;BME280_humidity;BME280_pressure;Samples;Min_cycle;Max_cycle;Signal;HPM_P1;HPM_P2
2022/06/27 00:02:14;;;;;;;1.42;1.00;;;17.40;99.90;;;;;;4718215;30;20064;-82
2022/06/27 00:04:40;;;;;;;1.52;1.20;;;17.40;99.90;;;;;;4733500;30;20056;-82
2022/06/27 00:07:05;;;;;;;1.90;1.10;;;17.40;99.90;;;;;;4733892;30;20580;-83
2022/06/27 00:09:31;;;;;;;1.65;1.00;;;17.40;99.90;;;;;;4734480;30;20462;-82
2022/06/27 00:11:59;;;;;;;2.13;1.10;;;17.40;99.90;;;;;;4716682;30;20064;-82
2022/06/27 00:14:25;;;;;;;3.10;0.80;;;17.40;99.90;;;;;;4726819;30;20049;-82
2022/06/27 00:16:51;;;;;;;2.03;1.10;;;17.40;99.90;;;;;;4728579;30;20439;-82
2022/06/27 00:19:18;;;;;;;1.35;1.02;;;17.30;99.90;;;;;;4728276;30;20056;-82
2022/06/27 00:21:44;;;;;;;2.67;1.20;;;17.30;99.90;;;;;;4712860;30;20103;-83
2022/06/27 00:24:10;;;;;;;2.15;1.10;;;17.30;99.90;;;;;;4721364;30;20087;-83
2022/06/27 00:26:35;;;;;;;1.25;1.00;;;17.30;99.90;;;;;;4733620;30;20495;-82
2022/06/27 00:29:01;;;;;;;1.50;0.90;;;17.30;99.90;;;;;;4733198;30;20060;-82
2022/06/27 00:31:27;;;;;;;1.13;0.65;;;17.30;99.90;;;;;;4733826;30;20056;-82
2022/06/27 00:33:52;;;;;;;1.75;0.90;;;17.30;99.90;;;;;;4729917;30;20056;-82
2022/06/27 00:36:18;;;;;;;1.33;0.90;;;17.30;99.90;;;;;;4733549;30;20053;-82
2022/06/27 00:38:44;;;;;;;1.10;0.80;;;17.30;99.90;;;;;;4732858;30;20061;-82
2022/06/27 00:41:09;;;;;;;1.90;0.90;;;17.30;99.90;;;;;;4732965;30;20087;-83
2022/06/27 00:43:35;;;;;;;2.42;0.95;;;17.20;99.90;;;;;;4717683;30;20067;-82
2022/06/27 00:46:01;;;;;;;1.13;0.80;;;17.30;99.90;;;;;;4733127;30;20049;-83
2022/06/27 00:48:26;;;;;;;0.80;0.60;;;17.20;99.90;;;;;;4725264;30;20060;-82
2022/06/27 00:50:52;;;;;;;1.88;0.90;;;17.20;99.90;;;;;;4730392;30;20522;-82
2022/06/27 00:53:18;;;;;;;2.80;0.90;;;17.20;99.90;;;;;;4732939;30;20056;-83
2022/06/27 00:55:45;;;;;;;1.77;0.80;;;17.20;99.90;;;;;;4727557;30;20075;-83
2022/06/27 00:58:10;;;;;;;1.30;1.00;;;17.20;99.90;;;;;;4716943;30;20053;-82
2022/06/27 01:00:36;;;;;;;2.78;1.27;;;17.10;99.90;;;;;;4733233;30;20087;-83
2022/06/27 01:03:02;;;;;;;1.27;1.00;;;17.10;99.90;;;;;;4733216;30;20075;-82
2022/06/27 01:05:27;;;;;;;1.70;1.05;;;17.10;99.90;;;;;;4733318;30;20061;-83
2022/06/27 01:07:54;;;;;;;1.83;1.20;;;17.20;99.90;;;;;;4733164;30;20065;-83
2022/06/27 01:10:19;;;;;;;1.67;1.20;;;17.10;99.90;;;;;;4709875;30;20057;-83
2022/06/27 01:12:48;;;;;;;2.45;0.80;;;17.10;99.90;;;;;;4733329;30;20129;-83
2022/06/27 01:15:14;;;;;;;2.00;0.90;;;17.20;99.90;;;;;;4732948;30;20257;-83
2022/06/27 01:17:40;;;;;;;1.83;1.10;;;17.20;99.90;;;;;;4717435;30;20064;-83
2022/06/27 01:20:07;;;;;;;2.63;1.42;;;17.20;99.90;;;;;;4717365;30;20555;-83
2022/06/27 01:22:32;;;;;;;2.78;1.33;;;17.10;99.90;;;;;;4731167;30;20064;-82
2022/06/27 01:24:58;;;;;;;2.13;1.15;;;17.10;99.90;;;;;;4725174;30;20087;-83
2022/06/27 01:27:24;;;;;;;2.13;1.20;;;17.20;99.90;;;;;;4732357;30;20056;-82
2022/06/27 01:29:50;;;;;;;3.05;1.25;;;17.10;99.90;;;;;;4728692;30;20437;-83
2022/06/27 01:32:15;;;;;;;3.63;1.35;;;17.10;99.90;;;;;;4732759;30;20053;-82
2022/06/27 01:34:41;;;;;;;1.60;1.15;;;17.10;99.90;;;;;;4733260;30;20147;-83
2022/06/27 01:37:08;;;;;;;1.88;1.30;;;17.10;99.90;;;;;;4724660;30;20101;-83
2022/06/27 01:39:33;;;;;;;1.63;1.17;;;17.00;99.90;;;;;;4732537;30;20660;-84
2022/06/27 01:42:02;;;;;;;2.15;0.95;;;17.00;99.90;;;;;;4732905;30;20053;-83
2022/06/27 01:44:30;;;;;;;1.67;1.30;;;17.00;99.90;;;;;;4725629;30;20485;-83
2022/06/27 01:47:08;;;;;;;2.05;1.25;;;17.00;99.90;;;;;;4725808;30;20084;-83
2022/06/27 01:49:36;;;;;;;1.27;1.00;;;17.00;99.90;;;;;;4718997;30;20099;-83
2022/06/27 01:52:03;;;;;;;1.33;0.75;;;17.10;99.90;;;;;;4736330;30;20518;-82
2022/06/27 01:54:29;;;;;;;2.85;0.82;;;17.10;99.90;;;;;;4735762;30;20056;-85
2022/06/27 01:56:56;;;;;;;1.45;1.00;;;17.10;99.90;;;;;;4733889;30;20049;-84
2022/06/27 01:59:24;;;;;;;1.60;1.00;;;17.10;99.90;;;;;;4735843;30;20049;-83
2022/06/27 02:01:50;;;;;;;1.55;1.20;;;17.10;99.90;;;;;;4718558;30;20061;-84
2022/06/27 02:04:17;;;;;;;2.75;1.35;;;17.00;99.90;;;;;;4730328;30;20072;-83
2022/06/27 02:06:44;;;;;;;5.28;1.50;;;17.00;99.90;;;;;;4713188;30;20053;-86
2022/06/27 02:09:13;;;;;;;2.47;1.20;;;17.00;99.90;;;;;;4735956;30;20056;-83
2022/06/27 02:11:40;;;;;;;2.72;1.42;;;17.00;99.90;;;;;;4719782;30;20491;-83
2022/06/27 02:14:06;;;;;;;1.98;1.25;;;17.00;99.90;;;;;;4734420;30;20056;-83
2022/06/27 02:16:32;;;;;;;2.28;1.48;;;17.00;99.90;;;;;;4732870;30;20053;-83
2022/06/27 02:18:58;;;;;;;1.77;1.30;;;17.00;99.90;;;;;;4735942;30;20048;-83
2022/06/27 02:21:27;;;;;;;3.20;1.50;;;17.00;99.90;;;;;;4735766;30;20126;-84
2022/06/27 02:23:53;;;;;;;1.50;1.20;;;17.00;99.90;;;;;;4729197;30;20445;-85
2022/06/27 02:26:28;;;;;;;2.75;1.67;;;17.00;99.90;;;;;;4719938;30;20415;-83
2022/06/27 02:28:55;;;;;;;2.10;1.10;;;17.00;99.90;;;;;;4733198;30;20091;-83
2022/06/27 02:31:21;;;;;;;1.63;1.17;;;17.00;99.90;;;;;;4730549;30;20061;-84
2022/06/27 02:33:49;;;;;;;2.72;1.75;;;17.00;99.90;;;;;;4735245;30;20148;-84
2022/06/27 02:36:26;;;;;;;3.35;1.55;;;17.00;99.90;;;;;;4716394;30;20427;-83
2022/06/27 02:38:54;;;;;;;2.45;1.33;;;17.00;99.90;;;;;;4728158;30;20100;-83
2022/06/27 02:41:20;;;;;;;2.40;1.20;;;17.00;99.90;;;;;;4731090;30;20055;-82
2022/06/27 02:43:55;;;;;;;3.33;1.65;;;17.00;99.90;;;;;;4719303;30;20061;-83
2022/06/27 02:46:21;;;;;;;3.95;1.98;;;17.00;99.90;;;;;;4735538;30;20064;-83
2022/06/27 02:48:50;;;;;;;2.53;1.60;;;17.00;99.90;;;;;;4734646;30;20127;-84
2022/06/27 02:51:21;;;;;;;4.15;1.73;;;17.00;99.90;;;;;;4735370;30;20056;-83
2022/06/27 02:53:53;;;;;;;3.90;1.65;;;16.90;99.90;;;;;;4719388;30;20498;-83
2022/06/27 02:56:25;;;;;;;1.75;1.38;;;16.90;99.90;;;;;;4735145;30;20052;-83
2022/06/27 02:59:02;;;;;;;3.30;1.52;;;16.90;99.90;;;;;;4734539;30;20075;-83
2022/06/27 03:01:29;;;;;;;1.45;1.10;;;16.90;99.90;;;;;;4734313;30;20049;-82
2022/06/27 03:03:57;;;;;;;2.88;1.45;;;16.90;99.90;;;;;;4731897;30;20522;-84
2022/06/27 03:06:23;;;;;;;1.88;1.50;;;16.90;99.90;;;;;;4734776;30;20056;-83
2022/06/27 03:08:49;;;;;;;2.03;1.60;;;16.80;99.90;;;;;;4734843;30;20099;-84
2022/06/27 03:11:17;;;;;;;2.70;1.38;;;16.80;99.90;;;;;;4734671;30;20053;-83
2022/06/27 03:13:44;;;;;;;3.38;1.60;;;16.80;99.90;;;;;;4735096;30;20115;-83
2022/06/27 03:16:10;;;;;;;1.70;1.23;;;16.80;99.90;;;;;;4734371;30;20088;-84
2022/06/27 03:18:37;;;;;;;2.15;1.70;;;16.80;99.90;;;;;;4731103;30;20049;-83
2022/06/27 03:21:03;;;;;;;1.95;1.40;;;16.80;99.90;;;;;;4727685;30;20518;-83
2022/06/27 03:23:29;;;;;;;3.75;1.45;;;16.80;99.90;;;;;;4714890;30;20057;-83
2022/06/27 03:25:55;;;;;;;2.63;1.45;;;16.80;99.90;;;;;;4716533;30;20588;-83
2022/06/27 03:28:21;;;;;;;2.20;1.45;;;16.80;99.90;;;;;;4734599;30;20128;-83
2022/06/27 03:30:47;;;;;;;3.03;1.70;;;16.80;99.90;;;;;;4728658;30;20487;-84
2022/06/27 03:33:14;;;;;;;2.25;1.52;;;16.80;99.90;;;;;;4734151;30;20060;-83
2022/06/27 03:35:41;;;;;;;1.70;1.35;;;16.80;99.90;;;;;;4734440;30;20171;-83
2022/06/27 03:38:06;;;;;;;3.65;1.92;;;16.80;99.90;;;;;;4717259;30;20056;-82
2022/06/27 03:40:32;;;;;;;3.65;1.67;;;17.00;99.90;;;;;;4734561;30;20060;-83
2022/06/27 03:42:58;;;;;;;2.30;1.40;;;16.80;99.90;;;;;;4733909;30;20057;-83
2022/06/27 03:45:24;;;;;;;2.28;1.42;;;16.80;99.90;;;;;;4734370;30;20139;-82
2022/06/27 03:47:52;;;;;;;1.42;1.00;;;16.80;99.90;;;;;;4734423;30;20055;-84
2022/06/27 03:50:19;;;;;;;2.35;1.20;;;16.80;99.90;;;;;;4718189;30;20161;-83
2022/06/27 03:52:45;;;;;;;2.05;1.20;;;16.80;99.90;;;;;;4731856;30;20104;-83
2022/06/27 03:55:11;;;;;;;1.85;1.15;;;16.80;99.90;;;;;;4732617;30;20088;-83
2022/06/27 03:57:52;;;;;;;2.78;1.38;;;16.80;99.90;;;;;;4731602;30;20119;-83
2022/06/27 04:00:20;;;;;;;2.15;1.30;;;16.70;99.90;;;;;;4727211;30;20060;-83
2022/06/27 04:02:46;;;;;;;3.08;1.77;;;16.70;99.90;;;;;;4733664;30;20111;-87
2022/06/27 04:05:12;;;;;;;2.72;1.60;;;16.70;99.90;;;;;;4717861;30;20490;-85
2022/06/27 04:07:38;;;;;;;2.55;1.77;;;16.70;99.90;;;;;;4734152;30;20057;-86
2022/06/27 04:10:08;;;;;;;2.35;1.60;;;16.70;99.90;;;;;;4733613;30;20057;-85
2022/06/27 04:12:34;;;;;;;2.35;1.42;;;16.80;99.90;;;;;;4730329;30;20097;-86
2022/06/27 04:15:00;;;;;;;2.78;1.58;;;16.80;99.90;;;;;;4730745;30;20092;-86
2022/06/27 04:17:25;;;;;;;3.58;1.60;;;16.70;99.90;;;;;;4733386;30;20092;-85
2022/06/27 04:19:51;;;;;;;2.05;1.48;;;16.70;99.90;;;;;;4732776;30;20563;-86
2022/06/27 04:22:17;;;;;;;3.03;2.00;;;16.70;99.90;;;;;;4726455;30;20519;-85
2022/06/27 04:24:42;;;;;;;1.90;1.58;;;16.70;99.90;;;;;;4733951;30;20482;-84
2022/06/27 04:27:08;;;;;;;1.88;1.30;;;16.70;99.90;;;;;;4731295;30;20059;-85
2022/06/27 04:29:34;;;;;;;2.30;1.63;;;16.80;99.90;;;;;;4717934;30;20067;-87
2022/06/27 04:32:00;;;;;;;2.38;1.50;;;16.80;99.90;;;;;;4715475;30;20060;-86
2022/06/27 04:34:27;;;;;;;1.45;1.13;;;16.80;99.90;;;;;;4732036;30;20076;-86
2022/06/27 04:36:53;;;;;;;2.08;1.25;;;16.80;99.90;;;;;;4727682;30;20045;-87
2022/06/27 04:39:20;;;;;;;1.73;1.20;;;16.80;99.90;;;;;;4726898;30;20093;-85
2022/06/27 04:41:47;;;;;;;1.30;0.95;;;16.80;99.90;;;;;;4729453;30;20044;-86
2022/06/27 04:44:13;;;;;;;1.77;1.30;;;16.80;99.90;;;;;;4733468;30;20063;-86
2022/06/27 04:46:41;;;;;;;1.52;1.10;;;16.90;99.90;;;;;;4733383;30;20056;-86
2022/06/27 04:49:07;;;;;;;1.45;0.95;;;16.90;99.90;;;;;;4733447;30;20069;-85
2022/06/27 04:51:35;;;;;;;2.33;1.00;;;16.90;99.90;;;;;;4733214;30;20237;-86
2022/06/27 04:54:01;;;;;;;1.77;1.13;;;17.00;99.90;;;;;;4733380;30;20173;-86
2022/06/27 04:56:29;;;;;;;1.30;0.98;;;17.00;99.90;;;;;;4711087;30;20118;-86
2022/06/27 04:58:55;;;;;;;1.00;0.80;;;17.00;99.90;;;;;;4733121;30;20086;-87
2022/06/27 05:01:21;;;;;;;1.48;0.88;;;17.00;99.90;;;;;;4733103;30;20052;-86
2022/06/27 05:03:47;;;;;;;1.60;1.08;;;17.00;99.90;;;;;;4733303;30;20462;-87
2022/06/27 05:06:13;;;;;;;1.52;0.88;;;17.00;99.90;;;;;;4727177;30;20056;-87
2022/06/27 05:08:38;;;;;;;1.75;1.20;;;17.10;99.90;;;;;;4732144;30;20063;-86
2022/06/27 05:11:04;;;;;;;1.00;0.70;;;17.10;99.90;;;;;;4717799;30;20059;-86
2022/06/27 05:13:31;;;;;;;1.70;1.05;;;17.10;99.90;;;;;;4732784;30;20064;-86
2022/06/27 05:15:58;;;;;;;1.58;0.80;;;17.10;99.90;;;;;;4733424;30;20052;-85
2022/06/27 05:18:24;;;;;;;0.73;0.60;;;17.10;99.90;;;;;;4733055;30;20064;-85
2022/06/27 05:20:50;;;;;;;1.20;0.60;;;17.10;99.90;;;;;;4728196;30;20474;-86
2022/06/27 05:23:16;;;;;;;1.00;0.60;;;17.10;99.90;;;;;;4733449;30;20174;-88
2022/06/27 05:29:33;;;;;;;0.52;0.47;;;17.20;99.90;;;;;;4730053;30;20048;-91
2022/06/27 05:32:00;;;;;;;0.50;0.40;;;17.20;99.90;;;;;;4687391;30;20067;-88
2022/06/27 05:34:28;;;;;;;0.60;0.52;;;17.30;99.90;;;;;;4719995;30;20057;-88
2022/06/27 05:37:08;;;;;;;0.60;0.52;;;17.30;99.90;;;;;;4720030;30;20107;-90
2022/06/27 05:39:36;;;;;;;0.40;0.40;;;17.30;99.90;;;;;;4736140;30;20068;-89
2022/06/27 05:42:03;;;;;;;0.80;0.65;;;17.30;99.90;;;;;;4735419;30;20049;-85
2022/06/27 05:44:29;;;;;;;0.88;0.60;;;17.40;99.90;;;;;;4712611;30;20071;-86
2022/06/27 05:46:56;;;;;;;1.05;0.70;;;17.40;99.90;;;;;;4719237;30;20048;-87
2022/06/27 05:49:32;;;;;;;0.80;0.60;;;17.40;99.90;;;;;;4720716;30;20060;-88
2022/06/27 05:52:00;;;;;;;1.50;0.90;;;17.40;99.90;;;;;;4725497;30;20127;-86
2022/06/27 05:54:29;;;;;;;0.80;0.70;;;17.50;99.90;;;;;;4720617;30;20057;-87
2022/06/27 06:00:54;;;;;;;0.93;0.70;;;17.40;99.90;;;;;;4724935;30;20127;-87
2022/06/27 06:03:20;;;;;;;0.73;0.68;;;17.40;99.90;;;;;;4736136;30;20439;-88
2022/06/27 06:05:48;;;;;;;1.83;0.60;;;17.50;99.90;;;;;;4720134;30;20088;-86
2022/06/27 06:08:14;;;;;;;1.23;0.82;;;17.60;99.90;;;;;;4730273;30;20058;-84
2022/06/27 06:10:40;;;;;;;0.82;0.63;;;17.60;99.90;;;;;;4735956;30;20065;-85
2022/06/27 06:13:06;;;;;;;1.48;0.70;;;17.70;99.90;;;;;;4735564;30;20562;-84
2022/06/27 06:15:31;;;;;;;0.63;0.60;;;17.70;99.90;;;;;;4720381;30;20065;-87
2022/06/27 06:18:03;;;;;;;1.48;0.80;;;17.80;99.90;;;;;;4735356;30;20089;-86
2022/06/27 06:20:29;;;;;;;0.68;0.63;;;17.80;99.90;;;;;;4720176;30;20141;-88
2022/06/27 06:22:55;;;;;;;0.88;0.70;;;17.70;99.90;;;;;;4732485;30;20558;-88
2022/06/27 06:25:21;;;;;;;1.33;1.10;;;17.80;99.90;;;;;;4720155;30;20115;-87
2022/06/27 06:27:47;;;;;;;1.02;0.70;;;17.70;99.90;;;;;;4735163;30;20080;-87
2022/06/27 06:30:13;;;;;;;1.30;0.80;;;17.70;99.90;;;;;;4734699;30;20325;-88
2022/06/27 06:32:39;;;;;;;0.80;0.80;;;17.70;99.90;;;;;;4735582;30;20146;-86
2022/06/27 06:35:05;;;;;;;1.00;0.75;;;17.80;99.90;;;;;;4728329;30;20080;-86
2022/06/27 06:37:32;;;;;;;1.17;0.80;;;17.70;99.90;;;;;;4714888;30;20151;-86
2022/06/27 06:39:58;;;;;;;1.10;0.80;;;17.70;99.90;;;;;;4734682;30;20053;-87
2022/06/27 06:42:24;;;;;;;0.90;0.65;;;17.70;99.90;;;;;;4731451;30;20076;-86
2022/06/27 06:44:52;;;;;;;0.70;0.60;;;17.70;99.90;;;;;;4735417;30;20057;-86
2022/06/27 06:47:19;;;;;;;1.00;0.70;;;17.80;99.90;;;;;;4722186;30;20049;-86
2022/06/27 06:49:46;;;;;;;0.85;0.70;;;17.80;99.90;;;;;;4719761;30;20069;-86
2022/06/27 06:52:13;;;;;;;1.33;0.70;;;17.80;99.90;;;;;;4734911;30;20442;-88
2022/06/27 06:54:41;;;;;;;1.75;0.75;;;17.90;99.90;;;;;;4719406;30;20483;-89
2022/06/27 06:57:09;;;;;;;2.05;0.93;;;17.80;99.90;;;;;;4728762;30;20060;-88
2022/06/27 06:59:35;;;;;;;0.70;0.50;;;18.00;99.90;;;;;;4719459;30;20065;-89
2022/06/27 07:02:01;;;;;;;2.05;0.77;;;17.90;99.90;;;;;;4719086;30;20060;-87
2022/06/27 07:04:27;;;;;;;1.00;0.63;;;17.80;99.90;;;;;;4735130;30;20061;-86
2022/06/27 07:06:53;;;;;;;1.02;0.68;;;17.90;99.90;;;;;;4733035;30;20136;-86
2022/06/27 07:09:19;;;;;;;1.67;0.77;;;17.80;99.90;;;;;;4734790;30;20069;-83
2022/06/27 07:11:45;;;;;;;1.13;0.80;;;17.90;99.90;;;;;;4734961;30;20048;-88
2022/06/27 07:14:11;;;;;;;0.95;0.60;;;17.90;99.90;;;;;;4734667;30;20055;-85
2022/06/27 07:16:37;;;;;;;0.90;0.60;;;17.90;99.90;;;;;;4732744;30;20059;-88
2022/06/27 07:19:06;;;;;;;0.70;0.60;;;17.90;99.90;;;;;;4734526;30;20415;-90
2022/06/27 07:21:34;;;;;;;1.38;0.73;;;18.00;99.90;;;;;;4734993;30;20415;-87
2022/06/27 07:24:01;;;;;;;0.98;0.60;;;18.00;99.90;;;;;;4736081;30;20056;-87
2022/06/27 07:26:28;;;;;;;0.50;0.50;;;18.10;99.90;;;;;;4720178;30;20088;-85
2022/06/27 07:28:55;;;;;;;0.77;0.60;;;18.10;99.90;;;;;;4735470;30;20119;-84
2022/06/27 07:31:21;;;;;;;0.90;0.63;;;18.10;99.90;;;;;;4731019;30;20052;-83
2022/06/27 07:33:51;;;;;;;1.05;0.73;;;18.10;99.90;;;;;;4735419;30;20470;-84
2022/06/27 07:36:19;;;;;;;1.55;0.60;;;18.10;99.90;;;;;;4734399;30;20056;-83
2022/06/27 07:38:49;;;;;;;0.70;0.60;;;18.10;99.90;;;;;;4734478;30;20052;-84
2022/06/27 07:41:16;;;;;;;1.20;0.80;;;18.10;99.90;;;;;;4733886;30;20458;-84
2022/06/27 07:43:46;;;;;;;1.55;0.80;;;18.00;99.90;;;;;;4734509;30;20079;-85
2022/06/27 07:46:15;;;;;;;0.95;0.73;;;18.00;99.90;;;;;;4726832;30;20071;-84
2022/06/27 07:48:41;;;;;;;1.20;0.90;;;18.00;99.90;;;;;;4731675;30;20064;-86
2022/06/27 07:51:07;;;;;;;1.20;0.90;;;18.00;99.90;;;;;;4731032;30;20044;-84
2022/06/27 07:53:35;;;;;;;1.02;0.70;;;18.00;99.90;;;;;;4733760;30;20045;-84
2022/06/27 07:56:03;;;;;;;0.88;0.60;;;18.00;99.90;;;;;;4734319;30;20118;-84
2022/06/27 07:58:35;;;;;;;1.02;0.68;;;18.00;99.90;;;;;;4717488;30;20067;-84
2022/06/27 08:01:14;;;;;;;1.48;0.80;;;18.00;99.90;;;;;;4734178;30;20068;-87
2022/06/27 08:03:47;;;;;;;0.90;0.60;;;18.00;99.90;;;;;;4719198;30;20537;-83
2022/06/27 08:06:21;;;;;;;1.63;0.70;;;18.00;99.90;;;;;;4728681;30;20052;-85
2022/06/27 08:08:59;;;;;;;1.27;0.50;;;18.00;99.90;;;;;;4727522;30;20509;-86
2022/06/27 08:11:27;;;;;;;1.27;0.80;;;18.10;99.90;;;;;;4717054;30;20064;-84
2022/06/27 08:13:55;;;;;;;1.00;0.80;;;18.10;99.90;;;;;;4734104;30;20392;-86
2022/06/27 08:16:23;;;;;;;0.80;0.70;;;18.10;99.90;;;;;;4730569;30;20061;-86
2022/06/27 08:18:50;;;;;;;1.05;0.73;;;18.10;99.90;;;;;;4728282;30;20134;-83
2022/06/27 08:21:19;;;;;;;1.00;0.80;;;18.30;99.90;;;;;;4732422;30;20056;-83
2022/06/27 08:23:48;;;;;;;1.00;0.82;;;18.20;99.90;;;;;;4705531;30;20067;-85
2022/06/27 08:26:14;;;;;;;0.88;0.60;;;18.20;99.90;;;;;;4718436;30;20060;-85
2022/06/27 08:28:43;;;;;;;1.20;0.82;;;18.20;99.90;;;;;;4712107;30;20508;-84
2022/06/27 08:31:12;;;;;;;1.80;0.80;;;18.30;99.90;;;;;;4733827;30;20056;-86
2022/06/27 08:33:39;;;;;;;0.90;0.70;;;18.30;99.90;;;;;;4731169;30;20133;-85
2022/06/27 08:36:06;;;;;;;1.38;0.80;;;18.30;99.90;;;;;;4725888;30;20491;-85
2022/06/27 08:38:48;;;;;;;1.10;0.80;;;18.30;99.90;;;;;;4726931;30;20090;-85
2022/06/27 08:41:14;;;;;;;0.90;0.70;;;18.30;99.90;;;;;;4717624;30;20175;-85
2022/06/27 08:43:41;;;;;;;0.90;0.80;;;18.30;99.90;;;;;;4717527;30;20063;-86
2022/06/27 08:46:10;;;;;;;1.08;0.80;;;18.40;99.90;;;;;;4733356;30;20060;-86
2022/06/27 08:48:37;;;;;;;2.63;1.50;;;18.40;99.90;;;;;;4725960;30;20068;-85
2022/06/27 08:51:06;;;;;;;1.45;0.90;;;18.40;99.90;;;;;;4728791;30;20056;-83
2022/06/27 08:53:33;;;;;;;1.35;1.15;;;18.50;99.90;;;;;;4731042;30;20165;-86
2022/06/27 08:56:00;;;;;;;1.50;0.90;;;18.60;99.90;;;;;;4709666;30;20391;-85
2022/06/27 08:58:28;;;;;;;1.00;0.77;;;18.40;99.90;;;;;;4708270;30;20415;-83
2022/06/27 09:00:55;;;;;;;1.40;1.10;;;18.40;99.90;;;;;;4703580;30;20053;-85
2022/06/27 09:03:22;;;;;;;0.90;0.63;;;18.40;99.90;;;;;;4717403;30;20406;-84
2022/06/27 09:05:57;;;;;;;0.95;0.60;;;18.40;99.90;;;;;;4714942;30;20060;-86
2022/06/27 09:08:25;;;;;;;0.88;0.60;;;18.50;99.90;;;;;;4719169;30;20057;-85
2022/06/27 09:10:53;;;;;;;1.83;1.08;;;18.50;99.90;;;;;;4730891;30;20528;-86
2022/06/27 09:13:20;;;;;;;0.90;0.70;;;18.50;99.90;;;;;;4732874;30;20056;-84
2022/06/27 09:15:59;;;;;;;0.80;0.70;;;18.70;99.90;;;;;;4732219;30;20056;-85
2022/06/27 09:18:37;;;;;;;1.15;0.90;;;18.70;99.90;;;;;;4722280;30;20060;-85
2022/06/27 09:21:11;;;;;;;0.80;0.70;;;18.90;99.90;;;;;;4733094;30;20103;-84
2022/06/27 09:23:47;;;;;;;1.25;0.70;;;18.90;99.90;;;;;;4726752;30;20515;-83
2022/06/27 09:26:19;;;;;;;1.75;0.80;;;19.00;99.90;;;;;;4729214;30;20064;-84
2022/06/27 09:28:51;;;;;;;1.50;1.00;;;19.00;99.90;;;;;;4731189;30;20123;-84
2022/06/27 09:31:26;;;;;;;1.50;0.77;;;19.20;99.90;;;;;;4731312;30;20056;-82
2022/06/27 09:34:15;;;;;;;1.08;0.80;;;19.20;99.90;;;;;;4730876;30;20507;-84
2022/06/27 09:36:59;;;;;;;0.95;0.70;;;19.30;99.90;;;;;;4724254;30;20107;-85
2022/06/27 09:39:36;;;;;;;1.33;0.98;;;19.40;99.90;;;;;;4731223;30;20061;-83
2022/06/27 09:42:02;;;;;;;2.80;0.80;;;19.40;99.90;;;;;;4732695;30;20493;-83
2022/06/27 09:44:42;;;;;;;1.60;0.93;;;19.30;99.90;;;;;;4729827;30;20090;-83
2022/06/27 09:47:17;;;;;;;1.35;0.90;;;19.30;99.90;;;;;;4726958;30;20049;-84
2022/06/27 09:49:50;;;;;;;1.27;0.80;;;19.30;99.90;;;;;;4716477;30;20069;-84
2022/06/27 09:52:18;;;;;;;0.98;0.73;;;19.20;99.90;;;;;;4717383;30;20462;-83
2022/06/27 09:54:47;;;;;;;0.93;0.80;;;19.10;99.90;;;;;;4732455;30;20067;-83
2022/06/27 09:57:16;;;;;;;1.08;0.80;;;19.10;99.90;;;;;;4711083;30;20133;-82
2022/06/27 09:59:43;;;;;;;3.35;1.00;;;19.00;99.90;;;;;;4716979;30;20103;-83
2022/06/27 10:02:09;;;;;;;1.25;0.90;;;19.00;99.90;;;;;;4732204;30;20057;-85
2022/06/27 10:04:37;;;;;;;1.45;0.90;;;19.10;99.90;;;;;;4732460;30;20132;-83
2022/06/27 10:07:07;;;;;;;1.88;1.08;;;19.10;99.90;;;;;;4725413;30;20049;-85
2022/06/27 10:09:35;;;;;;;1.35;0.80;;;19.20;99.90;;;;;;4727818;30;20217;-83
2022/06/27 10:12:36;;;;;;;1.40;1.20;;;19.20;99.90;;;;;;4713042;30;20135;-84
2022/06/27 10:15:10;;;;;;;1.55;0.90;;;19.20;99.90;;;;;;4737132;30;20053;-83
2022/06/27 10:17:41;;;;;;;1.02;0.80;;;19.30;99.90;;;;;;4721059;30;20067;-82
2022/06/27 10:20:12;;;;;;;1.95;1.30;;;19.30;99.90;;;;;;4728729;30;20119;-83
2022/06/27 10:22:41;;;;;;;1.80;0.90;;;19.20;99.90;;;;;;4735784;30;20135;-82
2022/06/27 10:25:25;;;;;;;2.55;1.10;;;19.30;99.90;;;;;;4735087;30;20127;-83
2022/06/27 10:28:13;;;;;;;1.13;0.80;;;19.30;99.90;;;;;;4735694;30;20052;-82
2022/06/27 10:30:44;;;;;;;1.20;0.80;;;19.40;99.90;;;;;;4724431;30;20108;-82
2022/06/27 10:33:28;;;;;;;1.20;0.70;;;19.40;99.90;;;;;;4735157;30;20060;-84
2022/06/27 10:38:34;;;;;;;1.23;0.75;;;19.50;99.90;;;;;;4722948;30;20057;-83
2022/06/27 10:41:02;;;;;;;1.35;0.90;;;19.60;99.90;;;;;;4736485;30;20064;-83
2022/06/27 10:43:39;;;;;;;1.50;1.10;;;19.60;99.90;;;;;;4728370;30;20392;-82
2022/06/27 10:46:10;;;;;;;3.25;1.40;;;19.60;99.90;;;;;;4734912;30;20052;-84
2022/06/27 10:48:39;;;;;;;2.00;1.20;;;19.70;99.90;;;;;;4735498;30;20052;-84
2022/06/27 10:51:28;;;;;;;2.15;1.45;;;19.70;99.90;;;;;;4734373;30;20064;-84
2022/06/27 10:54:05;;;;;;;1.67;1.10;;;19.80;99.90;;;;;;4726035;30;20056;-84
2022/06/27 10:56:43;;;;;;;1.35;0.85;;;19.90;99.90;;;;;;4734646;30;20064;-83
2022/06/27 10:59:14;;;;;;;1.70;1.30;;;20.00;99.90;;;;;;4735105;30;20055;-84
2022/06/27 11:01:53;;;;;;;2.17;1.73;;;20.10;99.90;;;;;;4735216;30;20151;-86
2022/06/27 11:04:28;;;;;;;2.30;1.10;;;20.20;99.90;;;;;;4735156;30;20053;-88
2022/06/27 11:06:59;;;;;;;;;;;20.30;99.90;;;;;;4722067;30;20392;-88
2022/06/27 11:09:34;;;;;;;2.05;1.27;;;20.40;99.90;;;;;;4734089;30;19930;-84
2022/06/27 11:12:00;;;;;;;1.65;1.30;;;20.50;99.90;;;;;;4727082;30;20124;-89
2022/06/27 11:14:25;;;;;;;2.40;1.45;;;20.70;99.90;;;;;;4732140;30;20056;-91
2022/06/27 11:16:51;;;;;;;1.65;1.20;;;20.80;99.90;;;;;;4722155;30;20076;-89
2022/06/27 11:22:19;;;;;;;2.63;1.20;;;21.10;99.90;;;;;;4718273;30;20489;-88
2022/06/27 11:24:46;;;;;;;1.45;1.13;;;21.20;99.90;;;;;;4718569;30;20067;-90
2022/06/27 11:27:11;;;;;;;1.55;1.20;;;21.20;99.90;;;;;;4702384;30;20049;-89
2022/06/27 11:32:21;;;;;;;4.53;1.58;;;21.20;99.90;;;;;;4723240;30;20049;-90
2022/06/27 11:34:51;;;;;;;1.73;1.20;;;21.20;99.90;;;;;;4718634;30;20063;-91
2022/06/27 11:37:22;;;;;;;2.22;1.23;;;21.20;99.90;;;;;;4704287;30;20065;-92
2022/06/27 11:40:07;;;;;;;1.60;1.20;;;21.20;99.90;;;;;;4719823;30;20144;-89
2022/06/27 11:50:13;;;;;;;2.25;1.35;;;21.10;99.90;;;;;;4718593;30;20113;-90
2022/06/27 11:52:45;;;;;;;2.33;1.52;;;20.90;99.90;;;;;;4719056;30;20067;-90
2022/06/27 11:55:19;;;;;;;2.40;1.20;;;20.80;99.90;;;;;;4703404;30;20060;-90
2022/06/27 11:57:48;;;;;;;2.10;1.40;;;20.70;99.90;;;;;;4720189;30;20123;-89
2022/06/27 12:00:20;;;;;;;1.95;1.27;;;20.70;99.90;;;;;;4703035;30;20057;-89
2022/06/27 12:03:12;;;;;;;2.55;1.58;;;20.60;99.90;;;;;;4702892;30;20061;-90
2022/06/27 12:05:40;;;;;;;1.67;1.30;;;20.50;99.90;;;;;;4700522;30;20115;-90
2022/06/27 12:08:08;;;;;;;2.55;1.35;;;20.50;99.90;;;;;;4685502;30;20060;-90
2022/06/27 12:10:39;;;;;;;2.95;1.50;;;20.50;99.90;;;;;;4700844;30;20072;-90
2022/06/27 12:13:07;;;;;;;3.05;1.58;;;20.50;99.90;;;;;;4707079;30;20402;-90
2022/06/27 12:15:34;;;;;;;1.58;1.13;;;20.50;99.90;;;;;;4687771;30;20563;-90
2022/06/27 12:18:01;;;;;;;2.72;1.30;;;20.50;99.90;;;;;;4718453;30;20061;-90
2022/06/27 12:20:29;;;;;;;2.58;1.40;;;20.50;99.90;;;;;;4688306;30;20116;-87
2022/06/27 12:22:54;;;;;;;1.70;1.40;;;20.40;99.90;;;;;;4702307;30;20212;-90
2022/06/27 12:25:21;;;;;;;2.85;1.55;;;20.40;99.90;;;;;;4717721;30;20504;-90
2022/06/27 12:27:48;;;;;;;2.35;1.63;;;20.40;99.90;;;;;;4701796;30;20053;-90
2022/06/27 12:30:15;;;;;;;1.92;1.33;;;20.40;99.90;;;;;;4717718;30;20061;-89
2022/06/27 12:32:42;;;;;;;2.88;1.30;;;20.30;99.90;;;;;;4702452;30;20093;-90
2022/06/27 12:35:08;;;;;;;2.65;1.58;;;20.40;99.90;;;;;;4717682;30;20064;-91
2022/06/27 12:37:35;;;;;;;2.30;1.75;;;20.40;99.90;;;;;;4702101;30;20057;-89
2022/06/27 12:40:02;;;;;;;2.30;1.73;;;20.40;99.90;;;;;;4701408;30;20061;-90
2022/06/27 12:42:30;;;;;;;2.10;1.30;;;20.40;99.90;;;;;;4717196;30;20199;-88
2022/06/27 12:44:56;;;;;;;1.98;1.45;;;20.40;99.90;;;;;;4701647;30;20072;-88
2022/06/27 12:47:22;;;;;;;2.33;1.58;;;20.40;99.90;;;;;;4717119;30;20143;-88
2022/06/27 12:49:48;;;;;;;2.15;1.65;;;20.40;99.90;;;;;;4701490;30;20057;-90
2022/06/27 12:52:15;;;;;;;3.85;1.55;;;20.40;99.90;;;;;;4701514;30;20112;-88
2022/06/27 12:54:41;;;;;;;2.90;1.77;;;20.50;99.90;;;;;;4701474;30;20148;-89
2022/06/27 12:57:07;;;;;;;2.83;1.55;;;20.50;99.90;;;;;;4717223;30;20144;-89
2022/06/27 12:59:33;;;;;;;2.63;1.88;;;20.50;99.90;;;;;;4701460;30;20185;-88
2022/06/27 13:02:00;;;;;;;4.63;1.55;;;20.60;99.90;;;;;;4717121;30;20471;-86
2022/06/27 13:04:25;;;;;;;4.05;2.25;;;20.60;99.90;;;;;;4716694;30;20061;-91
2022/06/27 13:06:51;;;;;;;2.70;1.50;;;20.50;99.90;;;;;;4702159;30;20120;-90
2022/06/27 13:09:17;;;;;;;2.45;1.88;;;20.50;99.90;;;;;;4702803;30;20526;-88
2022/06/27 13:11:43;;;;;;;4.18;2.00;;;20.40;99.90;;;;;;4717544;30;20451;-88
2022/06/27 13:14:09;;;;;;;2.10;1.45;;;20.40;99.90;;;;;;4724034;30;20084;-91
2022/06/27 13:16:35;;;;;;;2.60;2.20;;;20.30;99.90;;;;;;4731387;30;20132;-87
2022/06/27 13:19:00;;;;;;;3.30;1.80;;;20.30;99.90;;;;;;4717811;30;20139;-85